KELN/ELN METAR and TAF weather

Enter ICAO airport designator
Station Type Date Time Source
KELN METAR 2021/06/24 06:53 UTC NOAA

KELN 240653Z AUTO 31017G30KT 10SM CLR 21/05 A2989 RMK AO2 PK WND 31031/0637 SLP106 T02060050


Station Type Date Time Source
KELN Decoded METAR 2021/06/24 06:53 UTC NOAA

ELLENSBURG BOWERS FIELD, WA, United States (KELN) 47-02N 120-32W 519M
Jun 24, 2021 - 02:53 AM EDT / 2021.06.24 0653 UTC
Wind: from the NW (310 degrees) at 20 MPH (17 KT) gusting to 35 MPH (30 KT):0
Visibility: 10 mile(s):0
Sky conditions: clear
Temperature: 69.1 F (20.6 C)
Dew Point: 41.0 F (5.0 C)
Relative Humidity: 35%
Pressure (altimeter): 29.89 in. Hg (1012 hPa)
ob: KELN 240653Z AUTO 31017G30KT 10SM CLR 21/05 A2989 RMK AO2 PK WND 31031/0637 SLP106 T02060050
cycle: 7

Station Type Date Time Source
KELN TAF UTC NOAA

Error!

Example: see airport list